Airfield :
LOGIN :

Register | Disclaimer

   EN    FR    IT 

 










Legend :    VFR   Marginal VFR   IFR   Intensive IFR   Very Intensive IFR
Visi :
Ceiling :
>= 8 km
>= 3000ft
5 to 8 km
1000 to 3000 ft
1500m to 5 km
500 to 1000 ft
800 to 1500m
200 to 500 ft
< 800m
< 200 ft
Symbols :   Thunderstorms  Fog  Heavy snow  Heavy precipitations  Wind > 20 kt
SIGMETs :     Misc.  Thunderstorms  Icing  Turbulence  Mountain Waves  Volcanic Ashes






- Airport Elevation : 13 ft
- IATA code : SNR


LFRZ - St-Nazaire

CURRENT METAR :
  • 280800Z AUTO 25017KT 3500 -DZ BR OVC004 13/12 Q1013 TEMPO 25018G30KT RA

EXPIRED METARs :
  • 280730Z AUTO 26020KT 5000 -DZ BR OVC004 12/12 Q1012 TEMPO 25018G30KT RA
  • 280700Z AUTO 25019KT 5000 BR OVC005 12/12 Q1012 TEMPO 25018G30KT RA
  • 280630Z AUTO 25019KT 5000 BR OVC006 12/12 Q1012 TEMPO 25018G30KT RA OVC003
  • 280600Z AUTO 25019KT 9999 OVC006/// ///TCU 12/12 Q1012 TEMPO 25018G30KT 3000 RA OVC003
  • 280530Z AUTO 24019KT 6000 -RA OVC006/// ///TCU 12/12 Q1012 TEMPO 25018G30KT 3000 RA OVC003

TAF TAF LFRZ
Valid from the 28 at 06:00 until the 29 at 06:00 UTC


280500Z 2806/2906 25015KT 9999 BKN007
TEMPO 2806/2817 25018G30KT 3000 RA OVC003
TEMPO 2817/2823 2000 RA OVC002
TEMPO 2821/2824 24018G30KT
BECMG 2823/2901 NSW SCT010 BKN020
TEMPO 2900/2906 BKN008



MET'MAP, your aeronautical weather chart ! - Copyright ORBIFLY December 2007 - Disclaimer

ORBIFLY MET'MAP TEAM :

Programming & Development : Alexandra Zaïnal
Concept & original design : Baudouin d'Aumeries
Assistance for programming : Marc-Olivier Méhu
Technical & hardware support : Manuel Goepfert

Contact : metmap@orbifly.com




SOURCES & CREDITS :

   NOAA